Time;durP1;ratioP1;P1;durP2;ratioP2;P2;SDS_P1;SDS_P2;PMS_P1;PMS_P2;Temp;Humidity;BMP_temperature;BMP_pressure;BME280_temperature;BME280_humidity;BME280_pressure;Samples;Min_cycle;Max_cycle;Signal;HPM_P1;HPM_P2
2020/12/13 00:02:26;;;;;;;12.40;8.67;;;;;;;;;;5035998;28;21153;-72
2020/12/13 00:05:30;;;;;;;11.33;8.60;;;;;;;;;;5036270;28;20181;-72
2020/12/13 00:08:34;;;;;;;11.60;9.37;;;;;;;;;;5035309;28;20660;-72
2020/12/13 00:11:39;;;;;;;11.67;8.40;;;;;;;;;;5036085;28;20185;-72
2020/12/13 00:14:43;;;;;;;10.80;8.63;;;;;;;;;;5023911;28;20181;-72
2020/12/13 00:17:47;;;;;;;11.27;8.67;;;;;;;;;;5035312;28;20220;-72
2020/12/13 00:20:51;;;;;;;11.37;8.97;;;;;;;;;;5036177;28;20188;-72
2020/12/13 00:23:56;;;;;;;12.97;8.37;;;;;;;;;;5035690;28;20196;-72
2020/12/13 00:27:00;;;;;;;12.60;9.23;;;;;;;;;;5035661;28;20216;-72
2020/12/13 00:30:05;;;;;;;14.17;9.37;;;;;;;;;;5035546;28;20556;-72
2020/12/13 00:33:09;;;;;;;12.87;9.77;;;;;;;;;;5023365;28;20197;-72
2020/12/13 00:36:17;;;;;;;11.50;8.93;;;;;;;;;;5035599;28;20216;-73
2020/12/13 00:39:21;;;;;;;9.87;8.23;;;;;;;;;;5035554;28;20526;-72
2020/12/13 00:42:25;;;;;;;11.80;8.43;;;;;;;;;;5023142;28;20177;-72
2020/12/13 00:45:41;;;;;;;10.70;8.43;;;;;;;;;;5025088;28;20602;-73
2020/12/13 00:48:45;;;;;;;13.53;9.03;;;;;;;;;;5034716;28;20200;-72
2020/12/13 00:51:50;;;;;;;11.43;8.13;;;;;;;;;;5034207;28;20663;-72
2020/12/13 00:54:54;;;;;;;11.50;8.60;;;;;;;;;;5034538;28;21083;-73
2020/12/13 00:57:59;;;;;;;10.33;8.57;;;;;;;;;;5034182;28;20615;-72
2020/12/13 01:01:03;;;;;;;12.57;9.00;;;;;;;;;;5035270;28;20177;-72
2020/12/13 01:04:08;;;;;;;11.63;8.10;;;;;;;;;;5035311;28;20648;-72
2020/12/13 01:07:12;;;;;;;11.37;8.77;;;;;;;;;;5011747;28;20552;-72
2020/12/13 01:10:18;;;;;;;15.57;9.33;;;;;;;;;;5022876;28;20201;-72
2020/12/13 01:13:22;;;;;;;12.53;8.93;;;;;;;;;;5034196;28;20181;-72
2020/12/13 01:16:27;;;;;;;10.30;8.83;;;;;;;;;;5022612;28;20695;-72
2020/12/13 01:19:31;;;;;;;12.90;8.67;;;;;;;;;;5022618;28;20177;-72
2020/12/13 01:22:37;;;;;;;11.53;8.53;;;;;;;;;;5033994;28;20185;-72
2020/12/13 01:25:40;;;;;;;10.70;8.03;;;;;;;;;;5022359;28;20177;-72
2020/12/13 01:28:45;;;;;;;10.60;8.70;;;;;;;;;;5034283;28;20204;-72
2020/12/13 01:31:50;;;;;;;9.17;7.80;;;;;;;;;;5034007;28;20185;-72
2020/12/13 01:34:54;;;;;;;13.67;9.17;;;;;;;;;;5034227;28;21082;-72
2020/12/13 01:37:58;;;;;;;12.67;9.17;;;;;;;;;;5033293;28;20220;-72
2020/12/13 01:41:02;;;;;;;11.40;9.43;;;;;;;;;;5034154;28;20555;-72
2020/12/13 01:44:06;;;;;;;10.93;9.23;;;;;;;;;;5034591;28;20176;-72
2020/12/13 01:47:10;;;;;;;13.77;9.77;;;;;;;;;;5033782;28;20220;-72
2020/12/13 01:50:37;;;;;;;13.13;9.57;;;;;;;;;;5033797;28;20213;-72
2020/12/13 01:53:43;;;;;;;11.50;8.73;;;;;;;;;;5033029;28;20544;-72
2020/12/13 01:56:53;;;;;;;13.50;9.67;;;;;;;;;;5033692;28;20216;-72
2020/12/13 02:00:00;;;;;;;11.30;8.90;;;;;;;;;;5021929;28;20181;-72
2020/12/13 02:03:08;;;;;;;12.13;9.20;;;;;;;;;;5033690;28;20173;-72
2020/12/13 02:06:17;;;;;;;14.43;9.83;;;;;;;;;;5033591;28;20216;-72
2020/12/13 02:09:22;;;;;;;13.43;10.00;;;;;;;;;;5032784;28;20201;-72
2020/12/13 02:12:27;;;;;;;13.17;10.07;;;;;;;;;;5033074;28;20181;-72
2020/12/13 02:15:31;;;;;;;12.90;9.87;;;;;;;;;;5033808;28;20177;-72
2020/12/13 02:18:36;;;;;;;18.90;11.53;;;;;;;;;;5034124;28;20507;-72
2020/12/13 02:21:50;;;;;;;15.07;11.10;;;;;;;;;;5033747;28;20513;-72
2020/12/13 02:25:07;;;;;;;14.17;11.13;;;;;;;;;;5033599;28;20197;-72
2020/12/13 02:28:11;;;;;;;15.73;10.90;;;;;;;;;;5033303;28;20533;-72
2020/12/13 02:31:16;;;;;;;16.70;10.93;;;;;;;;;;5033529;28;20639;-72
2020/12/13 02:34:20;;;;;;;15.73;11.17;;;;;;;;;;5033504;28;20181;-72
2020/12/13 02:37:26;;;;;;;16.10;10.97;;;;;;;;;;5033419;28;20212;-72
2020/12/13 02:40:31;;;;;;;14.70;10.83;;;;;;;;;;5033486;28;20181;-72
2020/12/13 02:43:35;;;;;;;13.93;10.43;;;;;;;;;;5033147;28;20180;-72
2020/12/13 02:46:39;;;;;;;12.23;9.83;;;;;;;;;;5032906;28;20232;-72
2020/12/13 02:49:43;;;;;;;13.57;10.43;;;;;;;;;;5033291;28;20208;-72
2020/12/13 02:52:48;;;;;;;13.50;10.60;;;;;;;;;;5033313;28;20632;-72
2020/12/13 02:55:52;;;;;;;15.60;10.60;;;;;;;;;;5033197;28;20177;-72
2020/12/13 02:58:56;;;;;;;16.17;10.40;;;;;;;;;;5033555;28;20509;-72
2020/12/13 03:02:00;;;;;;;15.77;10.87;;;;;;;;;;5032933;28;20176;-72
2020/12/13 03:05:04;;;;;;;13.70;10.00;;;;;;;;;;5033219;28;20177;-72
2020/12/13 03:08:09;;;;;;;14.90;10.87;;;;;;;;;;5032887;28;20544;-72
2020/12/13 03:11:17;;;;;;;14.80;11.23;;;;;;;;;;5032852;28;20193;-72
2020/12/13 03:14:21;;;;;;;13.67;10.57;;;;;;;;;;5033135;28;20181;-72
2020/12/13 03:17:25;;;;;;;13.97;10.50;;;;;;;;;;5032830;28;20702;-72
2020/12/13 03:20:29;;;;;;;13.83;10.23;;;;;;;;;;5032781;28;20540;-72
2020/12/13 03:23:33;;;;;;;13.47;9.97;;;;;;;;;;5032785;28;20189;-72
2020/12/13 03:26:38;;;;;;;14.23;10.27;;;;;;;;;;5032755;28;20220;-72
2020/12/13 03:29:45;;;;;;;12.30;10.10;;;;;;;;;;5032937;28;20675;-72
2020/12/13 03:32:49;;;;;;;14.10;10.10;;;;;;;;;;5032786;28;20540;-72
2020/12/13 03:35:53;;;;;;;14.60;10.73;;;;;;;;;;5032555;28;20200;-72
2020/12/13 03:38:57;;;;;;;13.40;10.27;;;;;;;;;;5032869;28;20532;-72
2020/12/13 03:42:01;;;;;;;15.87;10.87;;;;;;;;;;5032604;28;20176;-72
2020/12/13 03:45:06;;;;;;;13.87;9.67;;;;;;;;;;5032439;28;20181;-72
2020/12/13 03:48:10;;;;;;;15.73;10.47;;;;;;;;;;5032529;28;20184;-72
2020/12/13 03:51:14;;;;;;;14.67;10.40;;;;;;;;;;5031881;28;20204;-73
2020/12/13 03:54:18;;;;;;;17.17;10.83;;;;;;;;;;5034679;28;20177;-73
2020/12/13 03:57:22;;;;;;;18.60;11.73;;;;;;;;;;5035994;28;20213;-73
2020/12/13 04:00:27;;;;;;;15.07;11.57;;;;;;;;;;5036255;28;20173;-72
2020/12/13 04:03:31;;;;;;;14.23;10.47;;;;;;;;;;5023877;28;20539;-72
2020/12/13 04:06:35;;;;;;;14.07;10.80;;;;;;;;;;5035934;28;20212;-72
2020/12/13 04:09:40;;;;;;;16.50;11.70;;;;;;;;;;5035996;28;20209;-72
2020/12/13 04:12:44;;;;;;;16.33;11.03;;;;;;;;;;5035926;28;20939;-72
2020/12/13 04:15:48;;;;;;;15.57;11.03;;;;;;;;;;5036055;28;20632;-72
2020/12/13 04:18:53;;;;;;;13.90;10.33;;;;;;;;;;5036166;28;20540;-72
2020/12/13 04:21:58;;;;;;;14.80;10.93;;;;;;;;;;5035813;28;20532;-72
2020/12/13 04:25:06;;;;;;;21.90;11.50;;;;;;;;;;5035631;28;20177;-72
2020/12/13 04:28:10;;;;;;;15.37;10.63;;;;;;;;;;5035698;28;20185;-72
2020/12/13 04:31:15;;;;;;;15.23;11.00;;;;;;;;;;5035677;28;20209;-72
2020/12/13 04:34:19;;;;;;;13.77;10.53;;;;;;;;;;5035976;28;20512;-72
2020/12/13 04:37:23;;;;;;;14.80;10.37;;;;;;;;;;5035754;28;20221;-72
2020/12/13 04:40:27;;;;;;;15.90;11.17;;;;;;;;;;5035496;28;20173;-72
2020/12/13 04:43:31;;;;;;;13.53;10.17;;;;;;;;;;5035462;28;20540;-72
2020/12/13 04:46:44;;;;;;;14.83;10.33;;;;;;;;;;5034288;28;20638;-72
2020/12/13 04:49:50;;;;;;;16.20;10.77;;;;;;;;;;5034952;28;20216;-72
2020/12/13 04:52:57;;;;;;;15.80;11.33;;;;;;;;;;5034438;28;20181;-72
2020/12/13 04:56:03;;;;;;;15.53;11.57;;;;;;;;;;5034928;28;20632;-72
2020/12/13 04:59:07;;;;;;;16.63;10.87;;;;;;;;;;5035263;28;20177;-72
2020/12/13 05:02:12;;;;;;;15.03;11.10;;;;;;;;;;5034210;28;20177;-72
2020/12/13 05:05:19;;;;;;;15.13;11.07;;;;;;;;;;5034956;28;20201;-72
2020/12/13 05:08:30;;;;;;;14.60;10.90;;;;;;;;;;5034600;28;20599;-72
2020/12/13 05:11:34;;;;;;;15.60;11.47;;;;;;;;;;5033865;28;20603;-72
2020/12/13 05:14:38;;;;;;;14.60;10.57;;;;;;;;;;5034995;28;20181;-72
2020/12/13 05:17:42;;;;;;;14.97;11.33;;;;;;;;;;5033604;28;20561;-72
2020/12/13 05:20:46;;;;;;;17.17;11.20;;;;;;;;;;5034999;28;20501;-72
2020/12/13 05:23:51;;;;;;;16.67;11.30;;;;;;;;;;5034885;28;20184;-72
2020/12/13 05:27:05;;;;;;;16.27;11.77;;;;;;;;;;5034371;28;20212;-72
2020/12/13 05:30:09;;;;;;;17.07;12.53;;;;;;;;;;5033398;28;20220;-73
2020/12/13 05:33:37;;;;;;;17.33;12.37;;;;;;;;;;5034223;28;20172;-72
2020/12/13 05:36:43;;;;;;;15.67;11.53;;;;;;;;;;5034557;28;20218;-72
2020/12/13 05:39:52;;;;;;;16.73;11.83;;;;;;;;;;5034024;28;20196;-72
2020/12/13 05:43:02;;;;;;;14.90;11.33;;;;;;;;;;5033595;28;20181;-72
2020/12/13 05:49:34;;;;;;;22.40;12.03;;;;;;;;;;5034177;28;20180;-72
2020/12/13 05:52:43;;;;;;;17.47;12.00;;;;;;;;;;5034164;28;20177;-73
2020/12/13 05:55:48;;;;;;;17.33;12.20;;;;;;;;;;5033808;28;20196;-72
2020/12/13 05:58:52;;;;;;;16.60;11.90;;;;;;;;;;5034029;28;20632;-72
2020/12/13 06:01:58;;;;;;;19.07;12.27;;;;;;;;;;5034001;28;20181;-72
2020/12/13 06:05:04;;;;;;;18.23;13.07;;;;;;;;;;5033889;28;20189;-72
2020/12/13 06:08:14;;;;;;;18.77;12.83;;;;;;;;;;5033457;28;20220;-72
2020/12/13 06:11:20;;;;;;;18.07;12.83;;;;;;;;;;5034071;28;20213;-72
2020/12/13 06:14:24;;;;;;;16.87;12.10;;;;;;;;;;5032989;28;20184;-72
2020/12/13 06:17:29;;;;;;;18.60;13.50;;;;;;;;;;5032264;28;20395;-72
2020/12/13 06:20:35;;;;;;;17.87;13.07;;;;;;;;;;5033644;28;20181;-72
2020/12/13 06:23:40;;;;;;;17.10;11.07;;;;;;;;;;5034040;28;20181;-73
2020/12/13 06:26:45;;;;;;;15.87;11.80;;;;;;;;;;5033189;28;20702;-72
2020/12/13 06:29:49;;;;;;;15.83;12.30;;;;;;;;;;5033144;28;20196;-73
2020/12/13 06:32:53;;;;;;;16.83;12.10;;;;;;;;;;5033344;28;20177;-72
2020/12/13 06:35:58;;;;;;;16.87;12.37;;;;;;;;;;5033053;28;20200;-73
2020/12/13 06:39:12;;;;;;;17.67;12.40;;;;;;;;;;5033104;28;20201;-72
2020/12/13 06:42:24;;;;;;;18.20;12.10;;;;;;;;;;5033060;28;20193;-72
2020/12/13 06:45:28;;;;;;;18.00;12.33;;;;;;;;;;5032900;28;20200;-73
2020/12/13 06:48:36;;;;;;;16.57;12.03;;;;;;;;;;5033243;28;20188;-73
2020/12/13 06:51:42;;;;;;;18.33;12.10;;;;;;;;;;5033304;28;20545;-72
2020/12/13 06:54:46;;;;;;;16.77;11.43;;;;;;;;;;5033201;28;20177;-72
2020/12/13 06:57:51;;;;;;;17.00;12.47;;;;;;;;;;5032894;28;20564;-73
2020/12/13 07:00:57;;;;;;;18.03;11.53;;;;;;;;;;5031216;28;20229;-72
2020/12/13 07:04:30;;;;;;;17.03;12.17;;;;;;;;;;5013538;28;20174;-72
2020/12/13 07:07:37;;;;;;;19.10;12.90;;;;;;;;;;5031679;28;20209;-72
2020/12/13 07:10:44;;;;;;;18.40;12.20;;;;;;;;;;5031029;28;20691;-72
2020/12/13 07:13:49;;;;;;;17.50;12.43;;;;;;;;;;5027229;28;20201;-72
2020/12/13 07:20:06;;;;;;;20.83;14.00;;;;;;;;;;5013651;28;20205;-72
2020/12/13 07:23:11;;;;;;;16.43;11.67;;;;;;;;;;5027566;28;20200;-72
2020/12/13 07:26:15;;;;;;;16.93;12.50;;;;;;;;;;5028062;28;20560;-72
2020/12/13 07:29:20;;;;;;;18.03;12.53;;;;;;;;;;5031797;28;20189;-72
2020/12/13 07:32:24;;;;;;;16.87;12.53;;;;;;;;;;5036486;28;20205;-72
2020/12/13 07:35:28;;;;;;;15.27;11.37;;;;;;;;;;5016954;28;20185;-72
2020/12/13 07:38:33;;;;;;;16.37;11.23;;;;;;;;;;5024223;28;20192;-72
2020/12/13 07:41:37;;;;;;;15.77;11.60;;;;;;;;;;5016549;28;20186;-72
2020/12/13 07:44:41;;;;;;;18.60;11.33;;;;;;;;;;5019904;28;20197;-72
2020/12/13 07:47:50;;;;;;;17.20;12.40;;;;;;;;;;5036281;28;20217;-72
2020/12/13 07:50:54;;;;;;;16.87;11.73;;;;;;;;;;5020661;28;20210;-72
2020/12/13 07:54:11;;;;;;;16.87;11.13;;;;;;;;;;5035823;28;20173;-72
2020/12/13 07:57:17;;;;;;;17.30;11.80;;;;;;;;;;5027898;28;20225;-72
2020/12/13 08:00:22;;;;;;;15.73;10.67;;;;;;;;;;5016471;28;20633;-72
2020/12/13 08:03:26;;;;;;;14.03;10.30;;;;;;;;;;5021787;28;20189;-72
2020/12/13 08:06:30;;;;;;;15.00;10.70;;;;;;;;;;5015953;28;20217;-72
2020/12/13 08:09:34;;;;;;;24.47;20.40;;;;;;;;;;5017104;28;20190;-72
2020/12/13 08:12:40;;;;;;;32.40;26.23;;;;;;;;;;5018245;28;20213;-72
2020/12/13 08:15:44;;;;;;;20.53;14.57;;;;;;;;;;5023773;28;20190;-72
2020/12/13 08:18:50;;;;;;;15.60;12.37;;;;;;;;;;5026327;28;20189;-72
2020/12/13 08:21:54;;;;;;;15.07;10.63;;;;;;;;;;5035009;28;20177;-72
2020/12/13 08:25:02;;;;;;;14.40;10.17;;;;;;;;;;5027451;28;20184;-72
2020/12/13 08:28:07;;;;;;;14.53;10.80;;;;;;;;;;5042797;28;20213;-72
2020/12/13 08:31:15;;;;;;;13.60;10.60;;;;;;;;;;5026537;28;20212;-73
2020/12/13 08:34:30;;;;;;;15.00;11.13;;;;;;;;;;5035485;28;20525;-72
2020/12/13 08:37:34;;;;;;;14.80;10.27;;;;;;;;;;5035163;28;20220;-72
2020/12/13 08:40:43;;;;;;;16.53;11.70;;;;;;;;;;5031347;28;20189;-72
2020/12/13 08:43:48;;;;;;;27.47;19.10;;;;;;;;;;5034129;28;20189;-72
2020/12/13 08:46:53;;;;;;;18.90;12.30;;;;;;;;;;5017846;28;20241;-72
2020/12/13 08:49:57;;;;;;;18.27;13.90;;;;;;;;;;5015864;28;20193;-72
2020/12/13 08:53:01;;;;;;;15.90;11.33;;;;;;;;;;5035251;28;20169;-72
2020/12/13 08:56:13;;;;;;;15.20;10.27;;;;;;;;;;5015158;28;20225;-72
2020/12/13 08:59:21;;;;;;;17.90;11.10;;;;;;;;;;5016135;28;20645;-72
2020/12/13 09:02:25;;;;;;;16.73;12.57;;;;;;;;;;5015221;28;20245;-72
2020/12/13 09:05:34;;;;;;;19.23;12.37;;;;;;;;;;5015516;28;20177;-72
2020/12/13 09:08:38;;;;;;;16.27;10.47;;;;;;;;;;5030840;28;20644;-72
2020/12/13 09:11:42;;;;;;;15.70;11.17;;;;;;;;;;5037789;28;20204;-75
2020/12/13 09:14:47;;;;;;;19.13;12.40;;;;;;;;;;5006498;28;20185;-72
2020/12/13 09:17:58;;;;;;;23.50;13.73;;;;;;;;;;5051069;28;20224;-72
2020/12/13 09:21:02;;;;;;;17.37;11.93;;;;;;;;;;5014650;28;20194;-72
2020/12/13 09:24:06;;;;;;;29.00;21.43;;;;;;;;;;5014676;28;20205;-72
2020/12/13 09:27:18;;;;;;;19.13;13.17;;;;;;;;;;5015604;28;21765;-72
2020/12/13 09:30:22;;;;;;;22.37;12.73;;;;;;;;;;5015814;28;20182;-72
2020/12/13 09:33:27;;;;;;;16.37;10.60;;;;;;;;;;5015653;28;20193;-71
2020/12/13 09:36:31;;;;;;;23.30;15.23;;;;;;;;;;5024923;28;20291;-71
2020/12/13 09:39:35;;;;;;;26.97;15.77;;;;;;;;;;5014646;28;20185;-72
2020/12/13 09:42:40;;;;;;;24.47;16.70;;;;;;;;;;5014432;28;20189;-72
2020/12/13 09:45:44;;;;;;;23.90;16.40;;;;;;;;;;5017298;28;20204;-72
2020/12/13 09:48:48;;;;;;;21.67;15.37;;;;;;;;;;5030629;28;20525;-72
2020/12/13 09:52:00;;;;;;;28.90;18.23;;;;;;;;;;5048725;28;20560;-72
2020/12/13 09:55:04;;;;;;;26.97;17.77;;;;;;;;;;5027326;28;20525;-72
2020/12/13 09:58:09;;;;;;;28.97;17.17;;;;;;;;;;5018806;28;20225;-71
2020/12/13 10:01:15;;;;;;;23.47;16.03;;;;;;;;;;5031578;28;20185;-72
2020/12/13 10:04:21;;;;;;;27.13;17.80;;;;;;;;;;5034258;28;20184;-72
2020/12/13 10:10:32;;;;;;;42.10;26.60;;;;;;;;;;5031180;28;20197;-72
2020/12/13 10:13:36;;;;;;;17.93;12.83;;;;;;;;;;5033518;28;20181;-72
2020/12/13 10:16:43;;;;;;;24.27;17.47;;;;;;;;;;5028257;28;20225;-72
2020/12/13 10:19:47;;;;;;;15.30;12.10;;;;;;;;;;5013636;28;20186;-72
2020/12/13 10:22:51;;;;;;;18.30;12.13;;;;;;;;;;5013570;28;20201;-72
2020/12/13 10:25:55;;;;;;;16.07;11.63;;;;;;;;;;5013398;28;20539;-72
2020/12/13 10:28:59;;;;;;;17.53;12.60;;;;;;;;;;5013931;28;20653;-72
2020/12/13 10:32:03;;;;;;;22.47;14.80;;;;;;;;;;5013758;28;20549;-72
2020/12/13 10:35:07;;;;;;;14.90;11.33;;;;;;;;;;5013774;28;20173;-72
2020/12/13 10:38:12;;;;;;;15.80;11.10;;;;;;;;;;5012944;28;20518;-72
2020/12/13 10:41:16;;;;;;;13.80;10.33;;;;;;;;;;5013755;28;20181;-71
2020/12/13 10:44:20;;;;;;;14.83;11.17;;;;;;;;;;5013364;28;20205;-72
2020/12/13 10:47:24;;;;;;;13.77;9.07;;;;;;;;;;5013277;28;20221;-72
2020/12/13 10:50:28;;;;;;;15.23;10.43;;;;;;;;;;5013233;28;20201;-71
2020/12/13 10:53:33;;;;;;;14.17;10.13;;;;;;;;;;5012137;28;20213;-72
2020/12/13 10:56:37;;;;;;;14.93;10.27;;;;;;;;;;5012991;28;20213;-72
2020/12/13 10:59:42;;;;;;;19.57;13.20;;;;;;;;;;5023616;28;20186;-72
2020/12/13 11:02:46;;;;;;;18.70;12.83;;;;;;;;;;5017273;28;20181;-72
2020/12/13 11:05:50;;;;;;;17.53;11.97;;;;;;;;;;5034702;28;20180;-72
2020/12/13 11:08:54;;;;;;;20.17;12.43;;;;;;;;;;5026099;28;20197;-72
2020/12/13 11:11:58;;;;;;;19.73;13.77;;;;;;;;;;5017273;28;20204;-72
2020/12/13 11:15:04;;;;;;;13.07;10.57;;;;;;;;;;5025703;28;20650;-72
2020/12/13 11:18:08;;;;;;;10.80;9.53;;;;;;;;;;5031756;28;20220;-72
2020/12/13 11:21:12;;;;;;;10.27;9.27;;;;;;;;;;5036538;28;20197;-72
2020/12/13 11:24:16;;;;;;;7.67;6.87;;;;;;;;;;5036624;28;20172;-72
2020/12/13 11:27:21;;;;;;;7.70;6.73;;;;;;;;;;5035917;28;20228;-72
2020/12/13 11:30:25;;;;;;;5.90;5.30;;;;;;;;;;5036109;28;20201;-72
2020/12/13 11:33:29;;;;;;;5.63;4.97;;;;;;;;;;5016830;28;20225;-72
2020/12/13 11:36:33;;;;;;;6.53;5.30;;;;;;;;;;5016706;28;20225;-72
2020/12/13 11:39:37;;;;;;;5.20;4.70;;;;;;;;;;5016829;28;20197;-72
2020/12/13 11:42:42;;;;;;;5.83;5.20;;;;;;;;;;5035064;28;20205;-72
2020/12/13 11:45:46;;;;;;;7.40;6.10;;;;;;;;;;5035915;28;20216;-72
2020/12/13 11:48:50;;;;;;;8.67;5.70;;;;;;;;;;5036059;28;20579;-72
2020/12/13 11:51:54;;;;;;;8.73;5.73;;;;;;;;;;5036200;28;20208;-72
2020/12/13 11:54:59;;;;;;;7.07;6.30;;;;;;;;;;5020235;28;20201;-72
2020/12/13 11:58:03;;;;;;;9.27;6.17;;;;;;;;;;5047929;28;20220;-72
2020/12/13 12:01:08;;;;;;;10.63;7.00;;;;;;;;;;5038018;28;20185;-72
2020/12/13 12:04:12;;;;;;;6.93;5.90;;;;;;;;;;5035795;28;20544;-72
2020/12/13 12:07:16;;;;;;;9.83;7.30;;;;;;;;;;5017496;28;20217;-72
2020/12/13 12:10:21;;;;;;;10.87;7.57;;;;;;;;;;5021283;28;20190;-73
2020/12/13 12:13:25;;;;;;;13.57;8.33;;;;;;;;;;5015254;28;20217;-72
2020/12/13 12:16:29;;;;;;;10.37;7.20;;;;;;;;;;5015795;28;20217;-72
2020/12/13 12:19:37;;;;;;;8.07;6.10;;;;;;;;;;5015739;28;20644;-72
2020/12/13 12:22:41;;;;;;;5.47;4.90;;;;;;;;;;5015715;28;20177;-72
2020/12/13 12:25:50;;;;;;;6.20;5.43;;;;;;;;;;5015620;28;20182;-72
2020/12/13 12:28:54;;;;;;;6.00;5.17;;;;;;;;;;5015939;28;20621;-72
2020/12/13 12:31:58;;;;;;;6.47;5.30;;;;;;;;;;5015828;28;20188;-72
2020/12/13 12:35:03;;;;;;;6.47;5.00;;;;;;;;;;5015929;28;20568;-72
2020/12/13 12:38:07;;;;;;;6.40;5.33;;;;;;;;;;5015455;28;20221;-72
2020/12/13 12:41:16;;;;;;;7.20;4.97;;;;;;;;;;5015588;28;20201;-72
2020/12/13 12:44:20;;;;;;;9.70;7.53;;;;;;;;;;5015779;28;20629;-72
2020/12/13 12:47:24;;;;;;;7.70;5.17;;;;;;;;;;5015424;28;20217;-72
2020/12/13 12:50:28;;;;;;;5.90;4.93;;;;;;;;;;5015322;28;20664;-72
2020/12/13 12:53:32;;;;;;;7.70;5.13;;;;;;;;;;5015494;28;20206;-72
2020/12/13 12:56:41;;;;;;;26.47;11.00;;;;;;;;;;5015133;28;20221;-72
2020/12/13 13:00:19;;;;;;;6.60;5.23;;;;;;;;;;5015456;28;20182;-72
2020/12/13 13:03:12;;;;;;;7.53;5.03;;;;;;;;;;5015098;28;20198;-72
2020/12/13 13:06:50;;;;;;;8.53;5.57;;;;;;;;;;5015209;28;20213;-72
2020/12/13 13:10:16;;;;;;;5.30;4.80;;;;;;;;;;5015261;28;20221;-72
2020/12/13 13:13:19;;;;;;;8.13;5.30;;;;;;;;;;5014299;28;20209;-73
2020/12/13 13:16:24;;;;;;;11.50;8.83;;;;;;;;;;5014955;28;20213;-72
2020/12/13 13:19:28;;;;;;;7.93;6.97;;;;;;;;;;5014521;28;20197;-72
2020/12/13 13:22:32;;;;;;;7.80;6.83;;;;;;;;;;5014709;28;20561;-72
2020/12/13 13:25:40;;;;;;;16.37;13.07;;;;;;;;;;5013768;28;20680;-72
2020/12/13 13:28:44;;;;;;;25.10;19.80;;;;;;;;;;5014073;28;20178;-72
2020/12/13 13:31:56;;;;;;;11.30;9.60;;;;;;;;;;5025203;28;20663;-72
2020/12/13 13:35:00;;;;;;;22.70;17.03;;;;;;;;;;5027404;28;20197;-72
2020/12/13 13:38:07;;;;;;;16.63;13.10;;;;;;;;;;5014515;28;20217;-72
2020/12/13 13:41:19;;;;;;;14.97;12.03;;;;;;;;;;5010846;28;20189;-72
2020/12/13 13:44:28;;;;;;;12.80;8.40;;;;;;;;;;5013825;28;20178;-72
2020/12/13 13:47:48;;;;;;;10.83;7.43;;;;;;;;;;5029308;28;20228;-72
2020/12/13 13:50:52;;;;;;;12.40;10.27;;;;;;;;;;5020038;28;20539;-72
2020/12/13 13:53:56;;;;;;;37.47;25.67;;;;;;;;;;5014113;28;20209;-72
2020/12/13 13:57:03;;;;;;;15.07;12.00;;;;;;;;;;5014266;28;20228;-73
2020/12/13 14:00:09;;;;;;;24.33;20.20;;;;;;;;;;5021465;28;20192;-72
2020/12/13 14:03:19;;;;;;;9.40;8.23;;;;;;;;;;5033657;28;20188;-72
2020/12/13 14:06:37;;;;;;;7.00;6.27;;;;;;;;;;5033815;28;20224;-72
2020/12/13 14:09:43;;;;;;;7.60;6.53;;;;;;;;;;5030093;28;20560;-73
2020/12/13 14:12:47;;;;;;;7.07;6.37;;;;;;;;;;5013833;28;20708;-72
2020/12/13 14:15:51;;;;;;;8.27;6.67;;;;;;;;;;5013623;28;20204;-72
2020/12/13 14:18:56;;;;;;;7.13;6.43;;;;;;;;;;5013168;28;20182;-72
2020/12/13 14:22:00;;;;;;;7.70;6.80;;;;;;;;;;5013896;28;20189;-73
2020/12/13 14:25:04;;;;;;;10.50;6.57;;;;;;;;;;5014034;28;20189;-72
2020/12/13 14:28:08;;;;;;;8.00;6.97;;;;;;;;;;5013595;28;20213;-72
2020/12/13 14:31:13;;;;;;;8.97;7.57;;;;;;;;;;5028839;28;20201;-72
2020/12/13 14:34:17;;;;;;;11.57;9.70;;;;;;;;;;5021826;28;20208;-72
2020/12/13 14:37:21;;;;;;;19.07;15.30;;;;;;;;;;5018972;28;20228;-72
2020/12/13 14:40:25;;;;;;;56.20;36.00;;;;;;;;;;5033669;28;20184;-72
2020/12/13 14:43:30;;;;;;;22.67;17.20;;;;;;;;;;5020361;28;20189;-72
2020/12/13 14:46:34;;;;;;;22.30;18.17;;;;;;;;;;5033087;28;20229;-72
2020/12/13 14:49:39;;;;;;;14.50;12.33;;;;;;;;;;5027033;28;20633;-72
2020/12/13 14:52:43;;;;;;;17.87;13.03;;;;;;;;;;5035755;28;20220;-73
2020/12/13 14:56:05;;;;;;;13.40;10.67;;;;;;;;;;5033150;28;20224;-72
2020/12/13 14:59:18;;;;;;;12.97;10.13;;;;;;;;;;5032154;28;20200;-72
2020/12/13 15:02:22;;;;;;;14.20;11.03;;;;;;;;;;5031928;28;20192;-73
2020/12/13 15:05:26;;;;;;;14.77;11.17;;;;;;;;;;5013428;28;20186;-72
2020/12/13 15:08:30;;;;;;;14.63;11.37;;;;;;;;;;5013915;28;20181;-72
2020/12/13 15:11:36;;;;;;;16.03;11.87;;;;;;;;;;5031371;28;20200;-72
2020/12/13 15:17:56;;;;;;;14.80;11.87;;;;;;;;;;5022821;28;20224;-72
2020/12/13 15:21:00;;;;;;;21.17;18.10;;;;;;;;;;5019876;28;20193;-72
2020/12/13 15:24:06;;;;;;;15.23;10.77;;;;;;;;;;5014450;28;20178;-72
2020/12/13 15:27:10;;;;;;;16.30;13.10;;;;;;;;;;5032959;28;20560;-72
2020/12/13 15:30:14;;;;;;;16.50;13.80;;;;;;;;;;5025595;28;20193;-72
2020/12/13 15:33:18;;;;;;;10.80;9.37;;;;;;;;;;5012882;28;20665;-72
2020/12/13 15:36:22;;;;;;;14.90;9.43;;;;;;;;;;5015273;28;20208;-72
2020/12/13 15:39:26;;;;;;;13.43;11.00;;;;;;;;;;5032007;28;20189;-72
2020/12/13 15:42:36;;;;;;;15.00;10.37;;;;;;;;;;5027749;28;20193;-72
2020/12/13 15:45:40;;;;;;;12.73;9.87;;;;;;;;;;5052630;28;20196;-72
2020/12/13 15:48:44;;;;;;;14.60;8.60;;;;;;;;;;5045511;28;20651;-72
2020/12/13 15:51:49;;;;;;;11.10;7.93;;;;;;;;;;5036154;28;20184;-72
2020/12/13 15:54:54;;;;;;;11.63;8.00;;;;;;;;;;5016148;28;20561;-72
2020/12/13 15:57:57;;;;;;;10.90;7.83;;;;;;;;;;5016305;28;20217;-72
2020/12/13 16:01:03;;;;;;;11.23;7.60;;;;;;;;;;5021665;28;20636;-72
2020/12/13 16:04:09;;;;;;;10.97;7.57;;;;;;;;;;5018528;28;20533;-72
2020/12/13 16:07:28;;;;;;;12.17;9.07;;;;;;;;;;5016269;28;20224;-72
2020/12/13 16:10:32;;;;;;;37.03;29.77;;;;;;;;;;5016365;28;20198;-72
2020/12/13 16:13:36;;;;;;;17.00;12.43;;;;;;;;;;5026034;28;20217;-72
2020/12/13 16:16:41;;;;;;;18.03;9.87;;;;;;;;;;5032015;28;20699;-72
2020/12/13 16:19:45;;;;;;;15.93;9.37;;;;;;;;;;5015869;28;20185;-72
2020/12/13 16:22:54;;;;;;;15.27;9.77;;;;;;;;;;5022338;28;20197;-72
2020/12/13 16:25:58;;;;;;;11.10;8.30;;;;;;;;;;5035774;28;20193;-72
2020/12/13 16:29:02;;;;;;;12.43;8.17;;;;;;;;;;5024697;22;20528;-84
2020/12/13 16:32:09;;;;;;;12.33;8.57;;;;;;;;;;4992314;28;20205;-86
2020/12/13 16:35:14;;;;;;;10.33;7.57;;;;;;;;;;4982551;28;20229;-86
2020/12/13 16:38:24;;;;;;;12.47;8.33;;;;;;;;;;4965473;28;20207;-85
2020/12/13 16:41:29;;;;;;;12.27;9.43;;;;;;;;;;4965499;28;20191;-84
2020/12/13 16:44:36;;;;;;;13.17;10.23;;;;;;;;;;4975448;28;20186;-84
2020/12/13 16:47:51;;;;;;;69.37;42.97;;;;;;;;;;4958437;28;20202;-85
2020/12/13 16:51:20;;;;;;;17.20;13.07;;;;;;;;;;4997221;28;20193;-86
2020/12/13 16:54:25;;;;;;;19.37;14.97;;;;;;;;;;4963511;28;20232;-84
2020/12/13 16:57:31;;;;;;;12.87;8.90;;;;;;;;;;4958350;28;20191;-85
2020/12/13 17:00:35;;;;;;;11.07;7.73;;;;;;;;;;4995370;28;20186;-86
2020/12/13 17:03:39;;;;;;;10.40;7.70;;;;;;;;;;4968707;28;20190;-86
2020/12/13 17:06:43;;;;;;;11.20;8.50;;;;;;;;;;4968148;28;20223;-86
2020/12/13 17:09:48;;;;;;;11.20;8.73;;;;;;;;;;4966682;28;20202;-84
2020/12/13 17:12:52;;;;;;;13.67;9.67;;;;;;;;;;4944299;28;20187;-86
2020/12/13 17:16:00;;;;;;;15.30;9.87;;;;;;;;;;4944568;28;20215;-84
2020/12/13 17:19:04;;;;;;;11.30;8.33;;;;;;;;;;5001822;28;20210;-84
2020/12/13 17:22:09;;;;;;;14.63;10.13;;;;;;;;;;4982543;28;20189;-85
2020/12/13 17:25:13;;;;;;;16.10;9.63;;;;;;;;;;4982037;28;20213;-86
2020/12/13 17:28:18;;;;;;;11.70;8.80;;;;;;;;;;4950864;28;20202;-84
2020/12/13 17:31:26;;;;;;;12.20;9.03;;;;;;;;;;4954831;28;20211;-84
2020/12/13 17:34:31;;;;;;;12.13;9.33;;;;;;;;;;4955079;28;20218;-86
2020/12/13 17:37:35;;;;;;;12.43;8.87;;;;;;;;;;4991995;28;20540;-85
2020/12/13 17:40:40;;;;;;;13.07;8.23;;;;;;;;;;4982603;28;20189;-85
2020/12/13 17:43:58;;;;;;;13.63;9.27;;;;;;;;;;5004914;28;20170;-84
2020/12/13 17:47:03;;;;;;;13.00;8.63;;;;;;;;;;5002364;28;20225;-85
2020/12/13 17:53:38;;;;;;;9.70;8.00;;;;;;;;;;4972037;28;20194;-84
2020/12/13 17:56:46;;;;;;;11.57;7.87;;;;;;;;;;5003336;28;20221;-85
2020/12/13 17:59:57;;;;;;;12.20;8.50;;;;;;;;;;4976627;28;20186;-84
2020/12/13 18:03:02;;;;;;;12.00;7.67;;;;;;;;;;4972959;28;20175;-84
2020/12/13 18:06:11;;;;;;;14.10;8.40;;;;;;;;;;4967497;28;20686;-84
2020/12/13 18:09:15;;;;;;;10.40;8.13;;;;;;;;;;4972281;28;20194;-84
2020/12/13 18:12:19;;;;;;;12.57;8.60;;;;;;;;;;4972091;28;20190;-84
2020/12/13 18:15:23;;;;;;;10.80;7.50;;;;;;;;;;4988156;28;20568;-84
2020/12/13 18:18:28;;;;;;;13.03;8.80;;;;;;;;;;5000352;28;20201;-84
2020/12/13 18:21:32;;;;;;;11.40;8.23;;;;;;;;;;4983089;28;20202;-83
2020/12/13 18:24:36;;;;;;;15.90;7.70;;;;;;;;;;4979303;28;20185;-83
2020/12/13 18:27:41;;;;;;;12.47;8.23;;;;;;;;;;4991282;28;20177;-84